sensor_id;sensor_type;location;lat;lon;timestamp;temperature;humidity
27900;DHT22;15243;50.726;7.080;2022-12-29T00:00:17;11.40;99.90
27900;DHT22;15243;50.726;7.080;2022-12-29T00:02:44;11.40;99.90
27900;DHT22;15243;50.726;7.080;2022-12-29T00:05:11;11.50;99.90
27900;DHT22;15243;50.726;7.080;2022-12-29T00:07:38;11.50;99.90
27900;DHT22;15243;50.726;7.080;2022-12-29T00:10:05;11.40;99.90
27900;DHT22;15243;50.726;7.080;2022-12-29T00:12:32;11.40;99.90
27900;DHT22;15243;50.726;7.080;2022-12-29T00:15:19;11.50;99.90
27900;DHT22;15243;50.726;7.080;2022-12-29T00:18:04;11.50;99.90
27900;DHT22;15243;50.726;7.080;2022-12-29T00:20:36;11.50;99.90
27900;DHT22;15243;50.726;7.080;2022-12-29T00:23:43;11.50;99.90
27900;DHT22;15243;50.726;7.080;2022-12-29T00:26:28;11.50;99.90
27900;DHT22;15243;50.726;7.080;2022-12-29T00:29:14;11.50;99.90
27900;DHT22;15243;50.726;7.080;2022-12-29T00:31:59;11.50;99.90
27900;DHT22;15243;50.726;7.080;2022-12-29T00:34:45;11.50;99.90
27900;DHT22;15243;50.726;7.080;2022-12-29T00:37:30;11.50;99.90
27900;DHT22;15243;50.726;7.080;2022-12-29T00:40:27;11.60;99.90
27900;DHT22;15243;50.726;7.080;2022-12-29T00:43:12;11.60;99.90
27900;DHT22;15243;50.726;7.080;2022-12-29T00:45:58;11.70;99.90
27900;DHT22;15243;50.726;7.080;2022-12-29T00:48:24;11.70;99.90
27900;DHT22;15243;50.726;7.080;2022-12-29T00:51:10;11.60;99.90
27900;DHT22;15243;50.726;7.080;2022-12-29T00:53:37;11.70;99.90
27900;DHT22;15243;50.726;7.080;2022-12-29T00:56:04;11.70;99.90
27900;DHT22;15243;50.726;7.080;2022-12-29T00:58:31;11.70;99.90
27900;DHT22;15243;50.726;7.080;2022-12-29T01:01:05;11.70;99.90
27900;DHT22;15243;50.726;7.080;2022-12-29T01:03:33;11.70;99.90
27900;DHT22;15243;50.726;7.080;2022-12-29T01:06:02;11.70;99.90
27900;DHT22;15243;50.726;7.080;2022-12-29T01:08:29;11.80;99.90
27900;DHT22;15243;50.726;7.080;2022-12-29T01:11:08;11.80;99.90
27900;DHT22;15243;50.726;7.080;2022-12-29T01:13:36;11.80;99.90
27900;DHT22;15243;50.726;7.080;2022-12-29T01:16:06;11.90;99.90
27900;DHT22;15243;50.726;7.080;2022-12-29T01:18:33;12.00;99.90
27900;DHT22;15243;50.726;7.080;2022-12-29T01:21:01;12.00;99.90
27900;DHT22;15243;50.726;7.080;2022-12-29T01:23:29;12.00;99.90
27900;DHT22;15243;50.726;7.080;2022-12-29T01:25:56;12.00;99.90
27900;DHT22;15243;50.726;7.080;2022-12-29T01:28:23;12.10;99.90
27900;DHT22;15243;50.726;7.080;2022-12-29T01:30:52;12.20;99.90
27900;DHT22;15243;50.726;7.080;2022-12-29T01:33:18;12.20;99.90
27900;DHT22;15243;50.726;7.080;2022-12-29T01:35:45;12.20;99.90
27900;DHT22;15243;50.726;7.080;2022-12-29T01:38:12;12.20;99.90
27900;DHT22;15243;50.726;7.080;2022-12-29T01:40:46;12.20;99.90
27900;DHT22;15243;50.726;7.080;2022-12-29T01:43:13;12.30;99.90
27900;DHT22;15243;50.726;7.080;2022-12-29T01:45:48;12.40;99.90
27900;DHT22;15243;50.726;7.080;2022-12-29T01:48:18;12.40;99.90
27900;DHT22;15243;50.726;7.080;2022-12-29T01:50:53;12.40;99.90
27900;DHT22;15243;50.726;7.080;2022-12-29T01:53:26;12.40;99.90
27900;DHT22;15243;50.726;7.080;2022-12-29T01:55:57;12.40;99.90
27900;DHT22;15243;50.726;7.080;2022-12-29T01:58:29;12.30;99.90
27900;DHT22;15243;50.726;7.080;2022-12-29T02:00:57;12.30;99.90
27900;DHT22;15243;50.726;7.080;2022-12-29T02:03:25;12.30;99.90
27900;DHT22;15243;50.726;7.080;2022-12-29T02:06:11;12.30;99.90
27900;DHT22;15243;50.726;7.080;2022-12-29T02:08:41;12.30;99.90
27900;DHT22;15243;50.726;7.080;2022-12-29T02:11:08;12.30;99.90
27900;DHT22;15243;50.726;7.080;2022-12-29T02:13:34;12.40;99.90
27900;DHT22;15243;50.726;7.080;2022-12-29T02:33:49;12.00;99.90
27900;DHT22;15243;50.726;7.080;2022-12-29T02:36:39;12.00;99.90
27900;DHT22;15243;50.726;7.080;2022-12-29T02:42:17;12.00;99.90
27900;DHT22;15243;50.726;7.080;2022-12-29T02:51:02;11.90;99.90
27900;DHT22;15243;50.726;7.080;2022-12-29T02:53:30;12.00;99.90
27900;DHT22;15243;50.726;7.080;2022-12-29T02:56:17;11.90;99.90
27900;DHT22;15243;50.726;7.080;2022-12-29T02:58:44;11.90;99.90
27900;DHT22;15243;50.726;7.080;2022-12-29T03:01:21;11.90;99.90
27900;DHT22;15243;50.726;7.080;2022-12-29T03:12:45;11.80;99.90
27900;DHT22;15243;50.726;7.080;2022-12-29T03:15:46;11.90;99.90
27900;DHT22;15243;50.726;7.080;2022-12-29T03:18:41;11.90;99.90
27900;DHT22;15243;50.726;7.080;2022-12-29T03:24:37;12.10;99.90
27900;DHT22;15243;50.726;7.080;2022-12-29T03:27:06;12.00;99.90
27900;DHT22;15243;50.726;7.080;2022-12-29T03:29:40;12.10;99.90
27900;DHT22;15243;50.726;7.080;2022-12-29T03:32:11;12.10;99.90
27900;DHT22;15243;50.726;7.080;2022-12-29T03:34:39;12.10;99.90
27900;DHT22;15243;50.726;7.080;2022-12-29T03:37:15;12.20;99.90
27900;DHT22;15243;50.726;7.080;2022-12-29T03:39:44;12.10;99.90
27900;DHT22;15243;50.726;7.080;2022-12-29T03:42:19;12.10;99.90
27900;DHT22;15243;50.726;7.080;2022-12-29T03:44:47;12.10;99.90
27900;DHT22;15243;50.726;7.080;2022-12-29T03:47:14;12.10;99.90
27900;DHT22;15243;50.726;7.080;2022-12-29T03:49:42;12.10;99.90
27900;DHT22;15243;50.726;7.080;2022-12-29T03:52:09;12.00;99.90
27900;DHT22;15243;50.726;7.080;2022-12-29T03:54:36;12.00;99.90
27900;DHT22;15243;50.726;7.080;2022-12-29T03:57:03;12.00;99.90
27900;DHT22;15243;50.726;7.080;2022-12-29T03:59:29;12.00;99.90
27900;DHT22;15243;50.726;7.080;2022-12-29T04:01:56;12.00;99.90
27900;DHT22;15243;50.726;7.080;2022-12-29T04:04:23;12.00;99.90
27900;DHT22;15243;50.726;7.080;2022-12-29T04:06:50;12.10;99.90
27900;DHT22;15243;50.726;7.080;2022-12-29T04:09:17;12.10;99.90
27900;DHT22;15243;50.726;7.080;2022-12-29T04:11:44;12.10;99.90
27900;DHT22;15243;50.726;7.080;2022-12-29T04:14:10;12.10;99.90
27900;DHT22;15243;50.726;7.080;2022-12-29T04:16:37;12.00;99.90
27900;DHT22;15243;50.726;7.080;2022-12-29T04:19:06;12.00;99.90
27900;DHT22;15243;50.726;7.080;2022-12-29T04:21:34;11.90;99.90
27900;DHT22;15243;50.726;7.080;2022-12-29T04:24:01;11.80;99.90
27900;DHT22;15243;50.726;7.080;2022-12-29T04:26:27;11.80;99.90
27900;DHT22;15243;50.726;7.080;2022-12-29T04:28:54;11.70;99.90
27900;DHT22;15243;50.726;7.080;2022-12-29T04:31:21;11.60;99.90
27900;DHT22;15243;50.726;7.080;2022-12-29T04:33:48;11.70;99.90
27900;DHT22;15243;50.726;7.080;2022-12-29T04:36:15;11.70;99.90
27900;DHT22;15243;50.726;7.080;2022-12-29T04:38:44;11.60;99.90
27900;DHT22;15243;50.726;7.080;2022-12-29T04:41:11;11.60;99.90
27900;DHT22;15243;50.726;7.080;2022-12-29T04:43:37;11.60;99.90
27900;DHT22;15243;50.726;7.080;2022-12-29T04:46:05;11.60;99.90
27900;DHT22;15243;50.726;7.080;2022-12-29T04:48:32;11.70;99.90
27900;DHT22;15243;50.726;7.080;2022-12-29T04:51:00;11.90;99.90
27900;DHT22;15243;50.726;7.080;2022-12-29T04:53:27;12.10;99.90
27900;DHT22;15243;50.726;7.080;2022-12-29T04:55:53;12.10;99.90
27900;DHT22;15243;50.726;7.080;2022-12-29T04:58:20;12.10;99.90
27900;DHT22;15243;50.726;7.080;2022-12-29T05:00:50;12.10;99.90
27900;DHT22;15243;50.726;7.080;2022-12-29T05:03:17;12.30;99.90
27900;DHT22;15243;50.726;7.080;2022-12-29T05:05:44;12.20;99.90
27900;DHT22;15243;50.726;7.080;2022-12-29T05:08:11;12.10;99.90
27900;DHT22;15243;50.726;7.080;2022-12-29T05:10:39;12.10;99.90
27900;DHT22;15243;50.726;7.080;2022-12-29T05:13:06;12.00;99.90
27900;DHT22;15243;50.726;7.080;2022-12-29T05:15:33;11.90;99.90
27900;DHT22;15243;50.726;7.080;2022-12-29T05:17:59;11.80;99.90
27900;DHT22;15243;50.726;7.080;2022-12-29T05:20:26;11.70;99.90
27900;DHT22;15243;50.726;7.080;2022-12-29T05:22:53;11.60;99.90
27900;DHT22;15243;50.726;7.080;2022-12-29T05:25:20;11.50;99.90
27900;DHT22;15243;50.726;7.080;2022-12-29T05:27:47;11.40;99.90
27900;DHT22;15243;50.726;7.080;2022-12-29T05:30:13;11.30;99.90
27900;DHT22;15243;50.726;7.080;2022-12-29T05:32:40;11.30;99.90
27900;DHT22;15243;50.726;7.080;2022-12-29T05:35:07;11.30;99.90
27900;DHT22;15243;50.726;7.080;2022-12-29T05:37:34;11.20;99.90
27900;DHT22;15243;50.726;7.080;2022-12-29T05:40:01;11.20;99.90
27900;DHT22;15243;50.726;7.080;2022-12-29T05:42:28;11.20;99.90
27900;DHT22;15243;50.726;7.080;2022-12-29T05:44:55;11.30;99.90
27900;DHT22;15243;50.726;7.080;2022-12-29T05:47:21;11.30;99.90
27900;DHT22;15243;50.726;7.080;2022-12-29T05:49:48;11.30;99.90
27900;DHT22;15243;50.726;7.080;2022-12-29T05:52:15;11.40;99.90
27900;DHT22;15243;50.726;7.080;2022-12-29T05:54:42;11.30;99.90
27900;DHT22;15243;50.726;7.080;2022-12-29T05:57:09;11.40;99.90
27900;DHT22;15243;50.726;7.080;2022-12-29T05:59:36;11.30;99.90
27900;DHT22;15243;50.726;7.080;2022-12-29T06:02:03;11.40;99.90
27900;DHT22;15243;50.726;7.080;2022-12-29T06:04:30;11.40;99.90
27900;DHT22;15243;50.726;7.080;2022-12-29T06:06:57;11.30;99.90
27900;DHT22;15243;50.726;7.080;2022-12-29T06:09:23;11.40;99.90
27900;DHT22;15243;50.726;7.080;2022-12-29T06:11:50;11.20;99.90
27900;DHT22;15243;50.726;7.080;2022-12-29T06:14:17;11.20;99.90
27900;DHT22;15243;50.726;7.080;2022-12-29T06:16:44;11.20;99.90
27900;DHT22;15243;50.726;7.080;2022-12-29T06:19:11;11.10;99.90
27900;DHT22;15243;50.726;7.080;2022-12-29T06:21:38;10.90;99.90
27900;DHT22;15243;50.726;7.080;2022-12-29T06:24:05;10.80;99.90
27900;DHT22;15243;50.726;7.080;2022-12-29T06:26:32;10.70;99.90
27900;DHT22;15243;50.726;7.080;2022-12-29T06:28:59;10.60;99.90
27900;DHT22;15243;50.726;7.080;2022-12-29T06:31:25;10.60;99.90
27900;DHT22;15243;50.726;7.080;2022-12-29T06:33:52;10.70;99.90
27900;DHT22;15243;50.726;7.080;2022-12-29T06:36:19;10.70;99.90
27900;DHT22;15243;50.726;7.080;2022-12-29T06:38:46;10.60;99.90
27900;DHT22;15243;50.726;7.080;2022-12-29T06:41:13;10.60;99.90
27900;DHT22;15243;50.726;7.080;2022-12-29T06:43:40;10.50;99.90
27900;DHT22;15243;50.726;7.080;2022-12-29T06:46:06;10.60;99.90
27900;DHT22;15243;50.726;7.080;2022-12-29T06:48:33;10.60;99.90
27900;DHT22;15243;50.726;7.080;2022-12-29T06:51:00;10.80;99.90
27900;DHT22;15243;50.726;7.080;2022-12-29T06:53:27;10.80;99.90
27900;DHT22;15243;50.726;7.080;2022-12-29T06:55:54;10.90;99.90
27900;DHT22;15243;50.726;7.080;2022-12-29T06:58:23;11.00;99.90
27900;DHT22;15243;50.726;7.080;2022-12-29T07:00:50;10.90;99.90
27900;DHT22;15243;50.726;7.080;2022-12-29T07:03:17;10.90;99.90
27900;DHT22;15243;50.726;7.080;2022-12-29T07:05:43;11.00;99.90
27900;DHT22;15243;50.726;7.080;2022-12-29T07:08:10;10.90;99.90
27900;DHT22;15243;50.726;7.080;2022-12-29T07:10:37;10.90;99.90
27900;DHT22;15243;50.726;7.080;2022-12-29T07:13:04;10.80;99.90
27900;DHT22;15243;50.726;7.080;2022-12-29T07:15:31;10.90;99.90
27900;DHT22;15243;50.726;7.080;2022-12-29T07:17:58;10.90;99.90
27900;DHT22;15243;50.726;7.080;2022-12-29T07:20:24;10.90;99.90
27900;DHT22;15243;50.726;7.080;2022-12-29T07:22:53;10.90;99.90
27900;DHT22;15243;50.726;7.080;2022-12-29T07:25:19;10.90;99.90
27900;DHT22;15243;50.726;7.080;2022-12-29T07:27:46;10.80;99.90
27900;DHT22;15243;50.726;7.080;2022-12-29T07:30:13;10.90;99.90
27900;DHT22;15243;50.726;7.080;2022-12-29T07:32:40;10.90;99.90
27900;DHT22;15243;50.726;7.080;2022-12-29T07:35:08;10.90;99.90
27900;DHT22;15243;50.726;7.080;2022-12-29T07:37:34;10.90;99.90
27900;DHT22;15243;50.726;7.080;2022-12-29T07:40:02;10.90;99.90
27900;DHT22;15243;50.726;7.080;2022-12-29T07:42:30;10.90;99.90
27900;DHT22;15243;50.726;7.080;2022-12-29T07:44:57;10.90;99.90
27900;DHT22;15243;50.726;7.080;2022-12-29T07:47:25;10.90;99.90
27900;DHT22;15243;50.726;7.080;2022-12-29T07:49:51;10.80;99.90
27900;DHT22;15243;50.726;7.080;2022-12-29T07:52:18;10.80;99.90
27900;DHT22;15243;50.726;7.080;2022-12-29T07:54:45;10.80;99.90
27900;DHT22;15243;50.726;7.080;2022-12-29T07:57:12;10.90;99.90
27900;DHT22;15243;50.726;7.080;2022-12-29T07:59:39;10.90;99.90
27900;DHT22;15243;50.726;7.080;2022-12-29T08:02:06;10.90;99.90
27900;DHT22;15243;50.726;7.080;2022-12-29T08:04:33;11.00;99.90
27900;DHT22;15243;50.726;7.080;2022-12-29T08:06:59;11.00;99.90
27900;DHT22;15243;50.726;7.080;2022-12-29T08:09:26;11.00;99.90
27900;DHT22;15243;50.726;7.080;2022-12-29T08:11:53;11.00;99.90
27900;DHT22;15243;50.726;7.080;2022-12-29T08:14:20;11.00;99.90
27900;DHT22;15243;50.726;7.080;2022-12-29T08:16:47;11.00;99.90
27900;DHT22;15243;50.726;7.080;2022-12-29T08:19:14;11.10;99.90
27900;DHT22;15243;50.726;7.080;2022-12-29T08:21:41;11.10;99.90
27900;DHT22;15243;50.726;7.080;2022-12-29T08:24:08;11.00;99.90
27900;DHT22;15243;50.726;7.080;2022-12-29T08:26:35;11.00;99.90
27900;DHT22;15243;50.726;7.080;2022-12-29T08:29:02;11.00;99.90
27900;DHT22;15243;50.726;7.080;2022-12-29T08:31:29;11.00;99.90
27900;DHT22;15243;50.726;7.080;2022-12-29T08:33:56;11.00;99.90
27900;DHT22;15243;50.726;7.080;2022-12-29T08:36:22;11.10;99.90
27900;DHT22;15243;50.726;7.080;2022-12-29T08:38:49;11.00;99.90
27900;DHT22;15243;50.726;7.080;2022-12-29T08:41:16;11.00;99.90
27900;DHT22;15243;50.726;7.080;2022-12-29T08:43:49;11.10;99.90
27900;DHT22;15243;50.726;7.080;2022-12-29T08:46:16;11.20;99.90
27900;DHT22;15243;50.726;7.080;2022-12-29T08:48:43;11.10;99.90
27900;DHT22;15243;50.726;7.080;2022-12-29T08:51:10;11.10;99.90
27900;DHT22;15243;50.726;7.080;2022-12-29T08:53:37;11.10;99.90
27900;DHT22;15243;50.726;7.080;2022-12-29T08:56:05;11.10;99.90
27900;DHT22;15243;50.726;7.080;2022-12-29T08:58:32;11.10;99.90
27900;DHT22;15243;50.726;7.080;2022-12-29T09:00:59;11.00;99.90
27900;DHT22;15243;50.726;7.080;2022-12-29T09:03:26;11.10;99.90
27900;DHT22;15243;50.726;7.080;2022-12-29T09:06:14;11.00;99.90
27900;DHT22;15243;50.726;7.080;2022-12-29T09:08:41;11.10;99.90
27900;DHT22;15243;50.726;7.080;2022-12-29T09:11:10;11.10;99.90
27900;DHT22;15243;50.726;7.080;2022-12-29T09:13:38;11.10;99.90
27900;DHT22;15243;50.726;7.080;2022-12-29T09:16:05;11.20;99.90
27900;DHT22;15243;50.726;7.080;2022-12-29T09:18:32;11.20;99.90
27900;DHT22;15243;50.726;7.080;2022-12-29T09:21:01;11.20;99.90
27900;DHT22;15243;50.726;7.080;2022-12-29T09:23:29;11.20;99.90
27900;DHT22;15243;50.726;7.080;2022-12-29T09:25:56;11.20;99.90
27900;DHT22;15243;50.726;7.080;2022-12-29T09:28:23;11.30;99.90
27900;DHT22;15243;50.726;7.080;2022-12-29T09:30:50;11.30;99.90
27900;DHT22;15243;50.726;7.080;2022-12-29T09:33:18;11.30;99.90
27900;DHT22;15243;50.726;7.080;2022-12-29T09:35:49;11.40;99.90
27900;DHT22;15243;50.726;7.080;2022-12-29T09:38:17;11.30;99.90
27900;DHT22;15243;50.726;7.080;2022-12-29T09:40:48;11.40;99.90
27900;DHT22;15243;50.726;7.080;2022-12-29T09:51:27;11.40;99.90
27900;DHT22;15243;50.726;7.080;2022-12-29T09:54:13;11.50;99.90
27900;DHT22;15243;50.726;7.080;2022-12-29T09:56:44;11.60;99.90
27900;DHT22;15243;50.726;7.080;2022-12-29T09:59:17;11.60;99.90
27900;DHT22;15243;50.726;7.080;2022-12-29T10:04:26;11.60;99.90
27900;DHT22;15243;50.726;7.080;2022-12-29T10:07:14;11.60;99.90
27900;DHT22;15243;50.726;7.080;2022-12-29T10:15:35;11.90;99.90
27900;DHT22;15243;50.726;7.080;2022-12-29T10:18:46;11.90;99.90
27900;DHT22;15243;50.726;7.080;2022-12-29T10:23:59;11.80;99.90
27900;DHT22;15243;50.726;7.080;2022-12-29T10:26:32;11.90;99.90
27900;DHT22;15243;50.726;7.080;2022-12-29T10:29:16;12.00;99.90
27900;DHT22;15243;50.726;7.080;2022-12-29T10:31:55;12.00;99.90
27900;DHT22;15243;50.726;7.080;2022-12-29T10:36:59;12.00;99.90
27900;DHT22;15243;50.726;7.080;2022-12-29T10:39:38;11.90;99.90
27900;DHT22;15243;50.726;7.080;2022-12-29T10:42:15;12.00;99.90
27900;DHT22;15243;50.726;7.080;2022-12-29T10:44:45;12.00;99.90
27900;DHT22;15243;50.726;7.080;2022-12-29T10:47:16;12.10;99.90
27900;DHT22;15243;50.726;7.080;2022-12-29T10:49:46;12.10;99.90
27900;DHT22;15243;50.726;7.080;2022-12-29T10:52:16;12.20;99.90
27900;DHT22;15243;50.726;7.080;2022-12-29T10:55:03;12.30;99.90
27900;DHT22;15243;50.726;7.080;2022-12-29T10:57:43;12.40;99.90
27900;DHT22;15243;50.726;7.080;2022-12-29T11:00:16;12.40;99.90
27900;DHT22;15243;50.726;7.080;2022-12-29T11:03:14;12.30;99.90
27900;DHT22;15243;50.726;7.080;2022-12-29T11:08:38;12.20;99.90
27900;DHT22;15243;50.726;7.080;2022-12-29T11:11:07;12.10;99.90
27900;DHT22;15243;50.726;7.080;2022-12-29T11:13:49;12.20;99.90
27900;DHT22;15243;50.726;7.080;2022-12-29T11:16:31;12.30;99.90
27900;DHT22;15243;50.726;7.080;2022-12-29T11:19:00;12.20;99.90
27900;DHT22;15243;50.726;7.080;2022-12-29T11:21:34;12.20;99.90
27900;DHT22;15243;50.726;7.080;2022-12-29T11:24:03;12.20;99.90
27900;DHT22;15243;50.726;7.080;2022-12-29T11:26:32;12.20;99.90
27900;DHT22;15243;50.726;7.080;2022-12-29T11:31:58;12.20;99.90
27900;DHT22;15243;50.726;7.080;2022-12-29T11:34:34;12.20;99.90
27900;DHT22;15243;50.726;7.080;2022-12-29T11:37:13;12.20;99.90
27900;DHT22;15243;50.726;7.080;2022-12-29T11:39:43;12.20;99.90
27900;DHT22;15243;50.726;7.080;2022-12-29T11:42:33;12.20;99.90
27900;DHT22;15243;50.726;7.080;2022-12-29T11:45:16;12.20;99.90
27900;DHT22;15243;50.726;7.080;2022-12-29T11:47:58;12.30;99.90
27900;DHT22;15243;50.726;7.080;2022-12-29T11:50:30;12.20;99.90
27900;DHT22;15243;50.726;7.080;2022-12-29T11:56:16;12.20;99.90
27900;DHT22;15243;50.726;7.080;2022-12-29T11:58:43;12.20;99.90
27900;DHT22;15243;50.726;7.080;2022-12-29T12:01:34;12.20;99.90
27900;DHT22;15243;50.726;7.080;2022-12-29T12:04:23;12.20;99.90
27900;DHT22;15243;50.726;7.080;2022-12-29T12:09:40;12.20;99.90
27900;DHT22;15243;50.726;7.080;2022-12-29T12:12:23;12.10;99.90
27900;DHT22;15243;50.726;7.080;2022-12-29T12:14:56;12.10;99.90
27900;DHT22;15243;50.726;7.080;2022-12-29T12:17:55;12.20;99.90
27900;DHT22;15243;50.726;7.080;2022-12-29T12:20:50;12.10;99.90
27900;DHT22;15243;50.726;7.080;2022-12-29T12:23:54;12.20;99.90
27900;DHT22;15243;50.726;7.080;2022-12-29T12:26:40;12.00;99.90
27900;DHT22;15243;50.726;7.080;2022-12-29T12:29:21;12.00;99.90
27900;DHT22;15243;50.726;7.080;2022-12-29T12:31:56;12.00;99.90
27900;DHT22;15243;50.726;7.080;2022-12-29T12:34:32;12.00;99.90
27900;DHT22;15243;50.726;7.080;2022-12-29T12:40:05;11.90;99.90
27900;DHT22;15243;50.726;7.080;2022-12-29T12:51:25;11.90;99.90
27900;DHT22;15243;50.726;7.080;2022-12-29T12:56:37;11.90;99.90
27900;DHT22;15243;50.726;7.080;2022-12-29T12:59:42;11.90;99.90
27900;DHT22;15243;50.726;7.080;2022-12-29T13:02:45;11.80;99.90
27900;DHT22;15243;50.726;7.080;2022-12-29T13:05:38;11.80;99.90
27900;DHT22;15243;50.726;7.080;2022-12-29T13:16:46;11.90;99.90
27900;DHT22;15243;50.726;7.080;2022-12-29T13:22:28;11.90;99.90
27900;DHT22;15243;50.726;7.080;2022-12-29T13:25:24;11.90;99.90
27900;DHT22;15243;50.726;7.080;2022-12-29T13:33:37;11.80;99.90
27900;DHT22;15243;50.726;7.080;2022-12-29T13:36:30;11.70;99.90
27900;DHT22;15243;50.726;7.080;2022-12-29T13:41:41;11.70;99.90
27900;DHT22;15243;50.726;7.080;2022-12-29T13:44:16;11.90;99.90
27900;DHT22;15243;50.726;7.080;2022-12-29T13:46:45;11.80;99.90
27900;DHT22;15243;50.726;7.080;2022-12-29T13:49:21;11.70;99.90
27900;DHT22;15243;50.726;7.080;2022-12-29T13:51:51;11.80;99.90
27900;DHT22;15243;50.726;7.080;2022-12-29T13:57:03;11.70;99.90
27900;DHT22;15243;50.726;7.080;2022-12-29T13:59:54;11.70;99.90
27900;DHT22;15243;50.726;7.080;2022-12-29T14:08:02;11.70;99.90
27900;DHT22;15243;50.726;7.080;2022-12-29T14:10:36;11.70;99.90
27900;DHT22;15243;50.726;7.080;2022-12-29T14:15:50;11.90;99.90
27900;DHT22;15243;50.726;7.080;2022-12-29T14:18:26;11.90;99.90
27900;DHT22;15243;50.726;7.080;2022-12-29T14:20:59;11.80;99.90
27900;DHT22;15243;50.726;7.080;2022-12-29T14:37:04;11.60;99.90
27900;DHT22;15243;50.726;7.080;2022-12-29T14:39:31;11.50;99.90
27900;DHT22;15243;50.726;7.080;2022-12-29T14:42:05;11.50;99.90
27900;DHT22;15243;50.726;7.080;2022-12-29T14:44:33;11.50;99.90
27900;DHT22;15243;50.726;7.080;2022-12-29T14:47:07;11.50;99.90
27900;DHT22;15243;50.726;7.080;2022-12-29T14:49:42;11.40;99.90
27900;DHT22;15243;50.726;7.080;2022-12-29T14:52:23;11.40;99.90
27900;DHT22;15243;50.726;7.080;2022-12-29T14:54:52;11.30;99.90
27900;DHT22;15243;50.726;7.080;2022-12-29T14:57:26;11.30;99.90
27900;DHT22;15243;50.726;7.080;2022-12-29T15:00:06;11.20;99.90
27900;DHT22;15243;50.726;7.080;2022-12-29T15:02:39;11.20;99.90
27900;DHT22;15243;50.726;7.080;2022-12-29T15:05:25;11.10;99.90
27900;DHT22;15243;50.726;7.080;2022-12-29T15:07:53;11.10;99.90
27900;DHT22;15243;50.726;7.080;2022-12-29T15:10:21;11.10;99.90
27900;DHT22;15243;50.726;7.080;2022-12-29T15:12:53;11.10;99.90
27900;DHT22;15243;50.726;7.080;2022-12-29T15:15:26;11.10;99.90
27900;DHT22;15243;50.726;7.080;2022-12-29T15:17:53;10.70;99.90
27900;DHT22;15243;50.726;7.080;2022-12-29T15:20:29;10.20;99.90
27900;DHT22;15243;50.726;7.080;2022-12-29T15:25:35;9.70;99.90
27900;DHT22;15243;50.726;7.080;2022-12-29T15:28:04;9.70;99.90
27900;DHT22;15243;50.726;7.080;2022-12-29T15:30:32;9.60;99.90
27900;DHT22;15243;50.726;7.080;2022-12-29T15:32:59;9.40;99.90
27900;DHT22;15243;50.726;7.080;2022-12-29T15:37:56;9.20;99.90
27900;DHT22;15243;50.726;7.080;2022-12-29T15:40:32;9.10;99.90
27900;DHT22;15243;50.726;7.080;2022-12-29T15:45:43;9.20;99.90
27900;DHT22;15243;50.726;7.080;2022-12-29T15:48:18;9.00;99.90
27900;DHT22;15243;50.726;7.080;2022-12-29T15:50:46;8.90;99.90
27900;DHT22;15243;50.726;7.080;2022-12-29T15:53:30;8.80;99.90
27900;DHT22;15243;50.726;7.080;2022-12-29T15:56:09;8.80;99.90
27900;DHT22;15243;50.726;7.080;2022-12-29T15:58:48;8.60;99.90
27900;DHT22;15243;50.726;7.080;2022-12-29T16:01:31;8.70;99.90
27900;DHT22;15243;50.726;7.080;2022-12-29T16:04:00;8.70;99.90
27900;DHT22;15243;50.726;7.080;2022-12-29T16:06:33;8.50;99.90
27900;DHT22;15243;50.726;7.080;2022-12-29T16:09:04;8.50;99.90
27900;DHT22;15243;50.726;7.080;2022-12-29T16:11:39;8.40;99.90
27900;DHT22;15243;50.726;7.080;2022-12-29T16:14:13;8.40;99.90
27900;DHT22;15243;50.726;7.080;2022-12-29T16:16:44;8.40;99.90
27900;DHT22;15243;50.726;7.080;2022-12-29T16:19:27;8.40;99.90
27900;DHT22;15243;50.726;7.080;2022-12-29T16:21:57;8.30;99.90
27900;DHT22;15243;50.726;7.080;2022-12-29T16:24:28;8.10;99.90
27900;DHT22;15243;50.726;7.080;2022-12-29T16:27:06;8.10;99.90
27900;DHT22;15243;50.726;7.080;2022-12-29T16:29:34;8.00;99.90
27900;DHT22;15243;50.726;7.080;2022-12-29T16:32:01;7.80;99.90
27900;DHT22;15243;50.726;7.080;2022-12-29T16:37:29;7.70;99.90
27900;DHT22;15243;50.726;7.080;2022-12-29T16:40:27;7.70;99.90
27900;DHT22;15243;50.726;7.080;2022-12-29T16:42:59;7.90;99.90
27900;DHT22;15243;50.726;7.080;2022-12-29T16:48:19;8.40;99.90
27900;DHT22;15243;50.726;7.080;2022-12-29T16:50:47;8.60;99.90
27900;DHT22;15243;50.726;7.080;2022-12-29T16:53:37;8.60;99.90
27900;DHT22;15243;50.726;7.080;2022-12-29T16:56:22;8.70;99.90
27900;DHT22;15243;50.726;7.080;2022-12-29T16:59:01;8.60;99.90
27900;DHT22;15243;50.726;7.080;2022-12-29T17:01:30;8.60;99.90
27900;DHT22;15243;50.726;7.080;2022-12-29T17:04:01;8.60;99.90
27900;DHT22;15243;50.726;7.080;2022-12-29T17:06:31;8.50;99.90
27900;DHT22;15243;50.726;7.080;2022-12-29T17:08:58;8.50;99.90
27900;DHT22;15243;50.726;7.080;2022-12-29T17:11:33;8.60;99.90
27900;DHT22;15243;50.726;7.080;2022-12-29T17:14:43;8.50;99.90
27900;DHT22;15243;50.726;7.080;2022-12-29T17:17:19;8.50;99.90
27900;DHT22;15243;50.726;7.080;2022-12-29T17:19:52;8.50;99.90
27900;DHT22;15243;50.726;7.080;2022-12-29T17:22:26;8.40;99.90
27900;DHT22;15243;50.726;7.080;2022-12-29T17:24:56;8.60;99.90
27900;DHT22;15243;50.726;7.080;2022-12-29T17:27:44;8.70;99.90
27900;DHT22;15243;50.726;7.080;2022-12-29T17:30:15;8.70;99.90
27900;DHT22;15243;50.726;7.080;2022-12-29T17:32:45;8.70;99.90
27900;DHT22;15243;50.726;7.080;2022-12-29T17:35:19;8.80;99.90
27900;DHT22;15243;50.726;7.080;2022-12-29T17:37:47;8.80;99.90
27900;DHT22;15243;50.726;7.080;2022-12-29T17:40:19;8.80;99.90
27900;DHT22;15243;50.726;7.080;2022-12-29T17:42:48;8.80;99.90
27900;DHT22;15243;50.726;7.080;2022-12-29T17:45:23;8.80;99.90
27900;DHT22;15243;50.726;7.080;2022-12-29T17:47:51;8.70;99.90
27900;DHT22;15243;50.726;7.080;2022-12-29T17:50:20;8.70;99.90
27900;DHT22;15243;50.726;7.080;2022-12-29T17:52:54;8.70;99.90
27900;DHT22;15243;50.726;7.080;2022-12-29T17:55:27;8.70;99.90
27900;DHT22;15243;50.726;7.080;2022-12-29T17:58:18;8.60;99.90
27900;DHT22;15243;50.726;7.080;2022-12-29T18:00:47;8.60;99.90
27900;DHT22;15243;50.726;7.080;2022-12-29T18:03:20;8.60;99.90
27900;DHT22;15243;50.726;7.080;2022-12-29T18:05:48;8.60;99.90
27900;DHT22;15243;50.726;7.080;2022-12-29T18:08:15;8.50;99.90
27900;DHT22;15243;50.726;7.080;2022-12-29T18:10:42;8.60;99.90
27900;DHT22;15243;50.726;7.080;2022-12-29T18:15:45;8.50;99.90
27900;DHT22;15243;50.726;7.080;2022-12-29T18:18:21;8.60;99.90
27900;DHT22;15243;50.726;7.080;2022-12-29T18:20:50;8.60;99.90
27900;DHT22;15243;50.726;7.080;2022-12-29T18:25:52;8.50;99.90
27900;DHT22;15243;50.726;7.080;2022-12-29T18:28:20;8.50;99.90
27900;DHT22;15243;50.726;7.080;2022-12-29T18:30:55;8.50;99.90
27900;DHT22;15243;50.726;7.080;2022-12-29T18:33:22;8.50;99.90